• Join FlightAware (Why Join?)
  • Login
  • US Flag 
11:09PM EDT


 

Airport Tracker/Info


-or-


 

Live Flight TrackerFlight Track Log ✈ FLG3429 ✈ 18-Jun-2013 ✈ KPSC - KMSP

Flight Track Log - Related Links

Times and Time Zones

All times are in EDT time to prevent confusion due to time zone crossing. See the FLG3429 flight status page for this flight to view local times or setup timezone preferences in your user account.

Time Position Orientation Groundspeed Altitude Reporting Facility
EDT Latitude Longitude Course Direction KTS MPH feet Rate Location/Type
04:26PM 46.2253 -119.1981 72° East 203 234 3,000  Level Salt Lake Center
04:27PM 46.2758 -119.1969 North 249 287 4,600 2,040 Climbing Salt Lake Center
04:28PM 46.3670 -118.6265 73° East  Level FlightAware Approximate
04:28PM 46.3039 -119.0972 68° East 258 297 7,300  Level Salt Lake Center
04:29PM 46.4027 -118.4600 73° East  Level FlightAware Approximate
04:29PM 46.3239 -118.9883 75° East 271 312 9,600  Level Seattle Center
04:30PM 46.4385 -118.2934 72° East  Level FlightAware Approximate
04:30PM 46.3486 -118.8706 73° East 298 343 11,200  Level Seattle Center
04:31PM 46.4761 -118.1255 72° East  Level FlightAware Approximate
04:31PM 46.3781 -118.7336 73° East 351 404 12,800  Level Seattle Center
04:32PM 46.4061 -118.5917 74° East 364 419 14,700 1,860 Climbing Seattle Center
04:33PM 46.4431 -118.4158 73° East 378 435 16,600 1,920 Climbing Seattle Center
04:34PM 46.4725 -118.2611 75° East 394 453 18,700 1,800 Climbing Seattle Center
04:35PM 46.5042 -118.1083 73° East 398 458 20,300 1,320 Climbing Seattle Center
04:36PM 46.5350 -117.9492 74° East 409 471 21,500 1,140 Climbing Seattle Center
04:37PM 46.5675 -117.7806 74° East 433 498 22,700 1,320 Climbing Seattle Center
04:38PM 46.6000 -117.6139 74° East 433 498 24,300 1,260 Climbing Seattle Center
04:39PM 46.6331 -117.4444 74° East 438 504 25,300 1,080 Climbing Seattle Center
04:40PM 46.6664 -117.2683 75° East 451 519 26,500 1,080 Climbing Seattle Center
04:41PM 46.7358 -117.1044 58° Northeast 484 557 27,500 1,020 Climbing Seattle Center
04:42PM 46.8150 -116.9456 54° Northeast 490 564 28,600 1,320 Climbing Seattle Center
04:43PM 46.9117 -116.7514 54° Northeast 496 571 30,200 1,380 Climbing Seattle Center
04:44PM 46.9925 -116.5914 53° Northeast 482 555 31,500 1,200 Climbing Seattle Center
04:45PM 47.0689 -116.4397 53° Northeast 480 552 32,700 1,020 Climbing Seattle Center
04:46PM 47.1414 -116.2800 56° Northeast 476 548 33,600 600 Climbing Seattle Center
04:47PM 47.1692 -116.1003 77° East 454 522 34,000 240 Climbing Seattle Center
04:48PM 47.1800 -115.9128 85° East 461 531 34,200 480 Climbing Seattle Center
04:49PM 47.1917 -115.7222 85° East 467 537 35,000 360 Climbing Seattle Center
04:50PM 47.2022 -115.5344 85° East 464 534 35,000  Level Seattle Center
04:51PM 47.2150 -115.3131 85° East 465 535 35,000  Level Seattle Center
04:53PM 47.2258 -115.1253 85° East 465 535 35,000  Level Seattle Center
04:54PM 47.2347 -114.9386 86° East 462 532 35,000  Level Seattle Center
04:55PM 47.2447 -114.7517 85° East 460 529 35,000 120 Level Seattle Center
04:56PM 47.2589 -114.4861 85° East 459 528 35,400 420 Climbing Salt Lake Center
04:57PM 47.2669 -114.3042 86° East 461 531 36,000 240 Climbing Salt Lake Center
04:58PM 47.2753 -114.1158 86° East 465 535 36,000  Level Salt Lake Center
04:59PM 47.2842 -113.9272 86° East 466 536 36,000  Level Salt Lake Center
05:00PM 47.2917 -113.7408 87° East 461 531 36,000  Level Salt Lake Center
05:01PM 47.3414 -113.5656 67° East 475 547 36,000  Level Salt Lake Center
05:02PM 47.4283 -113.3708 57° Northeast 476 548 36,000  Level Salt Lake Center
05:03PM 47.5111 -113.2197 51° Northeast 477 549 36,000  Level Salt Lake Center
05:04PM 47.5939 -113.0650 52° Northeast 482 555 36,000  Level Salt Lake Center
05:05PM 47.6703 -112.9147 53° Northeast 482 555 36,000  Level Salt Lake Center
05:06PM 47.7544 -112.7503 53° Northeast 481 554 36,000  Level Salt Lake Center
05:07PM 47.8533 -112.5592 52° Northeast 486 559 36,000  Level Salt Lake Center
05:08PM 47.9319 -112.4036 53° Northeast 486 559 36,000  Level Salt Lake Center
05:09PM 47.9842 -112.2222 67° East 478 550 36,000  Level Salt Lake Center
05:10PM 47.9917 -112.0242 87° East 478 550 36,000  Level Salt Lake Center
05:11PM 47.9864 -111.8303 92° East 472 543 36,000  Level Salt Lake Center
05:12PM 47.9828 -111.6333 91° East 471 542 36,000  Level Salt Lake Center
05:13PM 47.9789 -111.3986 91° East 470 541 36,000  Level Salt Lake Center
05:14PM 47.9753 -111.2022 92° East 470 541 36,000  Level Salt Lake Center
05:15PM 47.9714 -111.0056 92° East 471 542 36,000  Level Salt Lake Center
05:17PM 47.9667 -110.8103 92° East 470 541 36,000  Level Salt Lake Center
05:18PM 47.9622 -110.6172 92° East 467 537 36,000  Level Salt Lake Center
05:19PM 47.9572 -110.4247 92° East 465 535 36,000  Level Salt Lake Center
05:20PM 47.9514 -110.2311 93° East 466 536 36,000  Level Salt Lake Center
05:21PM 47.9456 -110.0386 93° East 466 536 36,000  Level Salt Lake Center
05:22PM 47.9375 -109.8061 93° East 468 539 36,000  Level Salt Lake Center
05:23PM 47.9314 -109.6111 93° East 470 541 36,000  Level Salt Lake Center
05:24PM 47.9242 -109.4186 93° East 469 540 36,000  Level Salt Lake Center
05:25PM 47.9169 -109.2239 93° East 471 542 36,000  Level Salt Lake Center
05:26PM 47.9078 -109.0308 94° East 469 540 36,000  Level Salt Lake Center
05:27PM 47.9003 -108.8372 93° East 470 541 36,000  Level Salt Lake Center
05:28PM 47.8900 -108.6053 94° East 468 539 36,000  Level Salt Lake Center
05:29PM 47.8814 -108.4122 94° East 468 539 36,000  Level Salt Lake Center
05:30PM 47.8714 -108.2197 94° East 468 539 36,000  Level Salt Lake Center
05:31PM 47.8636 -108.0278 93° East 466 536 36,000  Level Salt Lake Center
05:32PM 47.8539 -107.8367 94° East 466 536 36,000  Level Salt Lake Center
05:33PM 47.8439 -107.6442 94° East 467 537 36,000  Level Salt Lake Center
05:34PM 47.8342 -107.4519 94° East 467 537 36,000  Level Salt Lake Center
05:35PM 47.8197 -107.2342 96° East 469 540 36,000  Level Salt Lake Center
05:36PM 47.8083 -107.0428 95° East 467 537 36,000  Level Salt Lake Center
05:37PM 47.7978 -106.8506 95° East 468 539 36,000  Level Salt Lake Center
05:38PM 47.7858 -106.6572 95° East 470 541 36,000  Level Salt Lake Center
05:39PM 47.7725 -106.4250 95° East 472 543 36,000  Level Salt Lake Center
05:40PM 47.7592 -106.2308 96° East 473 544 36,000  Level Salt Lake Center
05:41PM 47.7458 -106.0350 96° East 476 548 36,000  Level Salt Lake Center
05:42PM 47.7317 -105.8408 96° East 475 547 36,000  Level Salt Lake Center
05:43PM 47.7169 -105.6453 96° East 477 549 36,000  Level Salt Lake Center
05:44PM 47.7056 -105.4494 95° East 477 549 36,000  Level Salt Lake Center
05:45PM 47.6889 -105.2158 96° East 477 549 36,000  Level Salt Lake Center
05:46PM 47.6736 -105.0217 97° East 476 548 36,000  Level Salt Lake Center
05:47PM 47.6581 -104.8278 97° East 476 548 36,000  Level Salt Lake Center
05:49PM 47.6439 -104.6350 96° East 474 545 36,000  Level Salt Lake Center
05:50PM 47.6286 -104.4414 97° East 474 545 36,000  Level Salt Lake Center
05:51PM 47.6131 -104.2489 97° East 474 545 36,000  Level Salt Lake Center
05:52PM 47.5936 -104.0183 97° East 475 547 36,000  Level Salt Lake Center
05:53PM 47.5767 -103.8289 97° East 476 548 36,000  Level Salt Lake Center
05:54PM 47.5603 -103.6364 97° East 483 556 36,000  Level Salt Lake Center
05:55PM 47.5444 -103.4442 97° East 482 555 36,000  Level Salt Lake Center
05:56PM 47.5242 -103.2125 97° East 479 551 36,000  Level Salt Lake Center
05:57PM 47.5067 -103.0169 97° East 479 551 36,000  Level Salt Lake Center
05:58PM 47.4883 -102.8217 98° East 481 554 36,000  Level Salt Lake Center
05:59PM 47.4667 -102.5875 98° East 484 557 36,000  Level Minneapolis Center
06:00PM 47.4472 -102.3900 98° East 487 560 36,000  Level Minneapolis Center
06:01PM 47.4275 -102.1947 98° East 484 557 36,000  Level Minneapolis Center
06:02PM 47.4031 -101.9594 99° East 484 557 36,000  Level Minneapolis Center
06:03PM 47.3833 -101.7625 98° East 487 560 36,000  Level Minneapolis Center
06:04PM 47.3650 -101.5667 98° East 485 558 36,000  Level Minneapolis Center
06:05PM 47.3436 -101.3747 99° East 478 550 36,000  Level Minneapolis Center
06:06PM 47.3233 -101.1858 99° East 472 543 36,000  Level Minneapolis Center
06:07PM 47.3000 -100.9647 99° East 468 539 36,000  Level Minneapolis Center
06:08PM 47.2733 -100.7781 102° East 468 539 36,000  Level Minneapolis Center
06:09PM 47.2522 -100.5917 99° East 465 535 36,000  Level Minneapolis Center
06:10PM 47.2314 -100.4058 99° East 462 532 36,000  Level Minneapolis Center
06:11PM 47.2083 -100.2208 100° East 463 533 36,000  Level Minneapolis Center
06:12PM 47.1858 -100.0333 100° East 466 536 36,000  Level Minneapolis Center
06:13PM 47.1575 -99.8072 100° East 469 540 36,000  Level Minneapolis Center
06:15PM 47.1392 -99.6575 100° East 469 540 36,000  Level Minneapolis Center
06:16PM 47.1103 -99.4286 100° East 475 547 36,000  Level Minneapolis Center
06:17PM 47.0861 -99.2383 100° East 476 548 36,000  Level Minneapolis Center
06:18PM 47.0619 -99.0486 101° East 476 548 36,000  Level Minneapolis Center
06:19PM 47.0367 -98.8583 101° East 477 549 36,000  Level Minneapolis Center
06:20PM 47.0008 -98.5906 101° East 481 554 36,000  Level Minneapolis Center
06:21PM 46.9717 -98.3614 100° East 481 554 36,000  Level Minneapolis Center
06:22PM 47.0306 -98.1997 62° Northeast 469 540 36,000  Level Minneapolis Center
06:23PM 47.1119 -98.0608 49° Northeast 454 522 36,000 -180 Level Minneapolis Center
06:24PM 47.1781 -97.9097 57° Northeast 457 526 35,700 -540 Descending Minneapolis Center
06:25PM 47.1336 -97.6892 106° East 489 563 35,000 -360 Descending Minneapolis Center
06:26PM 47.0769 -97.5133 115° Southeast 483 556 35,000  Level Minneapolis Center
06:28PM 47.0089 -97.3050 116° Southeast 476 548 35,000  Level Minneapolis Center
06:29PM 46.9506 -97.1289 116° Southeast 482 555 35,000  Level Minneapolis Center
06:30PM 46.9047 -96.9839 115° Southeast 489 563 35,000  Level Minneapolis Center
06:31PM 46.8203 -96.7331 116° Southeast 493 567 35,000  Level Minneapolis Center
06:32PM 46.7617 -96.5550 116° Southeast 490 564 35,000  Level Minneapolis Center
06:33PM 46.7033 -96.3808 116° Southeast 483 556 35,000  Level Minneapolis Center
06:34PM 46.6447 -96.2089 116° Southeast 476 548 35,000  Level Minneapolis Center
06:35PM 46.5872 -96.0372 116° Southeast 475 547 35,000  Level Minneapolis Center
06:36PM 46.5147 -95.8283 117° Southeast 484 557 35,000  Level Minneapolis Center
06:37PM 46.4436 -95.6219 117° Southeast 486 559 35,000  Level Minneapolis Center
06:38PM 46.3817 -95.4444 117° Southeast 486 559 35,000  Level Minneapolis Center
06:39PM 46.3392 -95.2436 107° East 485 558 35,000 -480 Level Minneapolis Center
06:40PM 46.3450 -95.0553 87° East 473 544 34,100 -1,260 Descending Minneapolis Center
06:41PM 46.3525 -94.8697 87° East 466 536 32,500 -1,560 Descending Minneapolis Center
06:42PM 46.3592 -94.6839 87° East 465 535 30,900 -1,560 Descending Minneapolis Center
06:43PM 46.2869 -94.5239 123° Southeast 483 556 29,300 -2,040 Descending Minneapolis Center
06:44PM 46.1861 -94.3658 133° Southeast 485 558 26,800 -2,520 Descending Minneapolis Center
06:45PM 46.1042 -94.2383 133° Southeast 451 519 24,200 -2,520 Descending Minneapolis Center
06:46PM 46.0244 -94.1156 133° Southeast 430 495 21,600 -2,520 Descending Minneapolis Center
06:47PM 45.9456 -93.9947 133° Southeast 420 483 19,000 -2,760 Descending Minneapolis Center
06:48PM 45.8544 -93.8544 133° Southeast 406 467 15,900 -2,340 Descending Minneapolis Center
06:49PM 45.7833 -93.7433 133° Southeast 387 445 14,200 -1,440 Descending Minneapolis Center
06:51PM 45.7036 -93.6728 148° Southeast 343 395 12,700 -1,200 Descending Minneapolis Center
06:52PM 45.5989 -93.6156 159° South 338 389 11,500 -840 Descending Minneapolis Center
06:53PM 45.5108 -93.5697 160° South 339 390 11,000 -300 Descending Minneapolis Center
06:54PM 45.4053 -93.5131 159° South 339 390 11,000 -300 Level Minneapolis Center
06:55PM 45.3222 -93.4914 170° South 298 343 10,400 -960 Descending Minneapolis Center
06:56PM 45.2622 -93.4928 181° South 272 313 9,100 -1,620 Descending Minneapolis Center
06:57PM 45.1956 -93.5528 212° Southwest 238 274 7,100 -1,440 Descending Minneapolis Center
06:58PM 45.1450 -93.6089 218° Southwest 234 269 6,200 -1,020 Descending Minneapolis Center
06:59PM 45.0944 -93.5906 166° South 198 228 5,000 -1,020 Descending Minneapolis Center
07:00PM 45.0631 -93.5358 129° Southeast 182 209 4,100 -1,020 Descending Minneapolis Center
07:01PM 45.0306 -93.4814 130° Southeast 181 208 3,000 -540 Descending Minneapolis Center
07:02PM 44.9981 -93.4256 129° Southeast 183 211 3,000  Level Minneapolis Center
07:03PM 44.9631 -93.3736 134° Southeast 183 211 3,000 -300 Level Minneapolis Center
07:04PM 44.9342 -93.3158 125° Southeast 178 205 2,400 -780 Descending Minneapolis Center
07:05PM 44.9078 -93.2556 122° Southeast 152 175 1,400 -1,020 Descending Minneapolis Center
07:07PM 44.8820 -93.2218 160° South  Level Estimated
07:14PM 44.8820 -93.2218 160° South  Level Estimated